createdAt,value
2022-11-22T00:01:20.864Z,24.10
2022-11-22T00:03:49.215Z,22.40
2022-11-22T00:06:17.606Z,19.33
2022-11-22T00:08:46.072Z,20.63
2022-11-22T00:11:14.459Z,22.10
2022-11-22T00:13:42.875Z,23.67
2022-11-22T00:16:11.343Z,22.40
2022-11-22T00:18:39.728Z,20.30
2022-11-22T00:21:09.249Z,22.40
2022-11-22T00:23:37.653Z,20.07
2022-11-22T00:26:07.780Z,22.27
2022-11-22T00:28:36.216Z,20.60
2022-11-22T00:31:04.657Z,19.77
2022-11-22T00:33:33.021Z,20.77
2022-11-22T00:36:01.364Z,21.43
2022-11-22T00:38:29.922Z,25.90
2022-11-22T00:40:58.257Z,22.93
2022-11-22T00:43:26.673Z,19.90
2022-11-22T00:45:55.138Z,18.87
2022-11-22T00:48:23.491Z,22.93
2022-11-22T00:50:51.887Z,17.53
2022-11-22T00:53:20.643Z,23.73
2022-11-22T00:55:49.440Z,21.70
2022-11-22T00:58:17.854Z,21.63
2022-11-22T01:00:46.350Z,22.10
2022-11-22T01:03:15.315Z,19.57
2022-11-22T01:05:43.702Z,22.60
2022-11-22T01:08:12.079Z,22.93
2022-11-22T01:10:40.531Z,20.13
2022-11-22T01:13:09.185Z,20.50
2022-11-22T01:15:37.716Z,21.42
2022-11-22T01:18:06.452Z,24.63
2022-11-22T01:20:34.829Z,20.17
2022-11-22T01:23:03.247Z,24.83
2022-11-22T01:25:31.653Z,20.97
2022-11-22T01:27:59.989Z,23.90
2022-11-22T01:30:28.397Z,23.10
2022-11-22T01:32:56.779Z,20.10
2022-11-22T01:35:25.125Z,20.33
2022-11-22T01:37:53.567Z,21.23
2022-11-22T01:40:22.207Z,21.10
2022-11-22T01:43:00.999Z,19.83
2022-11-22T01:45:32.108Z,20.50
2022-11-22T01:48:25.181Z,20.10
2022-11-22T01:51:03.990Z,18.73
2022-11-22T01:53:37.086Z,18.13
2022-11-22T01:56:10.052Z,21.23
2022-11-22T01:58:40.222Z,16.20
2022-11-22T02:01:09.354Z,17.93
2022-11-22T02:03:40.089Z,18.50
2022-11-22T02:06:09.442Z,18.93
2022-11-22T02:09:02.790Z,17.10
2022-11-22T02:11:34.348Z,17.43
2022-11-22T02:14:04.135Z,17.63
2022-11-22T02:16:33.011Z,17.60
2022-11-22T02:19:01.569Z,16.67
2022-11-22T02:21:30.556Z,18.10
2022-11-22T02:24:14.817Z,20.23
2022-11-22T02:26:43.585Z,18.60
2022-11-22T02:29:13.639Z,17.83
2022-11-22T02:31:48.311Z,21.10
2022-11-22T02:34:16.751Z,20.90
2022-11-22T02:36:49.811Z,19.93
2022-11-22T02:39:23.664Z,19.57
2022-11-22T02:41:52.639Z,19.77
2022-11-22T02:44:22.572Z,17.90
2022-11-22T02:46:54.111Z,17.00
2022-11-22T02:49:24.865Z,19.23
2022-11-22T02:51:54.196Z,17.93
2022-11-22T02:54:22.657Z,19.40
2022-11-22T02:56:51.267Z,21.40
2022-11-22T02:59:19.687Z,20.33
2022-11-22T03:01:49.144Z,15.63
2022-11-22T03:04:25.462Z,18.47
2022-11-22T03:06:59.226Z,18.77
2022-11-22T03:09:29.112Z,17.03
2022-11-22T03:11:57.815Z,19.47
2022-11-22T03:14:26.747Z,18.77
2022-11-22T03:16:55.150Z,18.17
2022-11-22T03:19:23.578Z,17.53
2022-11-22T03:21:52.196Z,17.70
2022-11-22T03:24:21.071Z,18.77
2022-11-22T03:26:50.876Z,16.13
2022-11-22T03:29:19.582Z,20.43
2022-11-22T03:31:48.168Z,16.20
2022-11-22T03:34:16.699Z,21.03
2022-11-22T03:36:45.327Z,17.10
2022-11-22T03:39:13.653Z,19.13
2022-11-22T03:41:42.064Z,17.67
2022-11-22T03:44:10.476Z,18.53
2022-11-22T03:46:38.850Z,21.40
2022-11-22T03:49:07.199Z,22.33
2022-11-22T03:51:35.559Z,22.30
2022-11-22T03:54:03.926Z,25.92
2022-11-22T03:56:32.475Z,21.52
2022-11-22T03:59:00.936Z,20.60
2022-11-22T04:01:29.498Z,19.37
2022-11-22T04:03:58.511Z,21.80
2022-11-22T04:06:26.948Z,20.60
2022-11-22T04:08:55.404Z,20.20
2022-11-22T04:11:23.809Z,22.63
2022-11-22T04:14:10.567Z,23.53
2022-11-22T04:16:38.883Z,20.60
2022-11-22T04:19:07.423Z,21.80
2022-11-22T04:21:35.891Z,22.60
2022-11-22T04:24:28.119Z,24.20
2022-11-22T04:26:57.198Z,21.63
2022-11-22T04:29:25.757Z,23.17
2022-11-22T04:32:12.916Z,23.27
2022-11-22T04:34:41.319Z,21.23
2022-11-22T04:37:09.638Z,23.07
2022-11-22T04:39:38.259Z,21.63
2022-11-22T04:42:25.161Z,25.13
2022-11-22T04:44:53.591Z,23.10
2022-11-22T04:47:40.379Z,19.03
2022-11-22T04:50:30.119Z,23.77
2022-11-22T04:52:58.975Z,26.42
2022-11-22T04:55:27.321Z,21.98
2022-11-22T04:57:59.737Z,23.88
2022-11-22T05:00:30.072Z,23.20
2022-11-22T05:02:58.930Z,25.38
2022-11-22T05:05:27.913Z,24.27
2022-11-22T05:07:57.088Z,22.80
2022-11-22T05:10:27.120Z,21.05
2022-11-22T05:12:56.732Z,24.15
2022-11-22T05:15:25.190Z,23.63
2022-11-22T05:17:53.625Z,23.65
2022-11-22T05:20:21.966Z,24.92
2022-11-22T05:23:08.535Z,22.30
2022-11-22T05:25:36.928Z,21.85
2022-11-22T05:28:05.396Z,24.17
2022-11-22T05:30:33.810Z,23.92
2022-11-22T05:33:02.150Z,23.48
2022-11-22T05:35:30.474Z,24.15
2022-11-22T05:37:59.507Z,24.20
2022-11-22T05:40:28.454Z,25.77
2022-11-22T05:42:57.903Z,24.27
2022-11-22T05:45:26.423Z,25.77
2022-11-22T05:47:54.776Z,23.17
2022-11-22T05:50:23.232Z,26.02
2022-11-22T05:52:51.660Z,23.45
2022-11-22T05:55:19.992Z,24.73
2022-11-22T05:57:48.366Z,28.92
2022-11-22T06:00:17.394Z,26.10
2022-11-22T06:02:45.777Z,28.48
2022-11-22T06:05:14.130Z,25.83
2022-11-22T06:07:42.594Z,25.73
2022-11-22T06:10:11.385Z,25.48
2022-11-22T06:12:39.742Z,23.23
2022-11-22T06:15:08.689Z,26.67
2022-11-22T06:17:37.012Z,24.48
2022-11-22T06:20:06.663Z,24.40
2022-11-22T06:22:35.390Z,23.23
2022-11-22T06:25:04.152Z,24.00
2022-11-22T06:27:32.488Z,22.60
2022-11-22T06:30:00.879Z,20.73
2022-11-22T06:32:29.247Z,26.17
2022-11-22T06:34:57.612Z,27.85
2022-11-22T06:37:26.021Z,27.92
2022-11-22T06:39:54.439Z,29.58
2022-11-22T06:42:22.819Z,25.92
2022-11-22T06:44:51.291Z,26.65
2022-11-22T06:47:19.857Z,29.05
2022-11-22T06:49:48.258Z,26.38
2022-11-22T06:52:16.705Z,22.08
2022-11-22T06:54:45.087Z,24.40
2022-11-22T06:57:16.280Z,20.98
2022-11-22T06:59:44.722Z,22.30
2022-11-22T07:02:13.478Z,25.15
2022-11-22T07:05:02.297Z,23.90
2022-11-22T07:07:30.182Z,24.13
2022-11-22T07:09:58.545Z,25.10
2022-11-22T07:12:27.570Z,25.08
2022-11-22T07:14:55.971Z,23.63
2022-11-22T07:17:24.391Z,21.70
2022-11-22T07:19:52.711Z,21.05
2022-11-22T07:22:21.124Z,19.02
2022-11-22T07:24:49.469Z,19.90
2022-11-22T07:27:17.828Z,22.38
2022-11-22T07:29:46.219Z,19.67
2022-11-22T07:32:14.582Z,19.52
2022-11-22T07:34:42.951Z,22.70
2022-11-22T07:37:11.301Z,20.27
2022-11-22T07:39:39.827Z,21.00
2022-11-22T07:42:08.195Z,20.90
2022-11-22T07:44:36.604Z,22.38
2022-11-22T07:47:04.978Z,21.38
2022-11-22T07:49:33.402Z,21.35
2022-11-22T07:52:02.149Z,23.33
2022-11-22T07:54:30.484Z,22.63
2022-11-22T07:56:58.815Z,21.90
2022-11-22T07:59:27.556Z,21.98
2022-11-22T08:01:56.233Z,22.80
2022-11-22T08:04:26.636Z,23.92
2022-11-22T08:06:55.057Z,23.20
2022-11-22T08:09:23.396Z,23.67
2022-11-22T08:11:51.779Z,23.08
2022-11-22T08:14:20.208Z,20.58
2022-11-22T08:16:48.584Z,24.25
2022-11-22T08:19:18.744Z,20.77
2022-11-22T08:21:49.382Z,23.75
2022-11-22T08:24:20.011Z,26.02
2022-11-22T08:26:48.367Z,26.33
2022-11-22T08:29:16.744Z,20.40
2022-11-22T08:31:45.092Z,25.08
2022-11-22T08:34:13.425Z,20.85
2022-11-22T08:36:41.783Z,21.63
2022-11-22T08:39:10.520Z,23.38
2022-11-22T08:41:38.914Z,22.35
2022-11-22T08:44:07.466Z,24.55
2022-11-22T08:46:35.828Z,26.45
2022-11-22T08:49:07.135Z,23.33
2022-11-22T08:51:37.120Z,21.88
2022-11-22T08:54:05.480Z,21.60
2022-11-22T08:56:33.822Z,22.20
2022-11-22T08:59:02.295Z,25.48
2022-11-22T09:01:30.805Z,22.92
2022-11-22T09:03:59.253Z,27.47
2022-11-22T09:09:36.362Z,24.80
2022-11-22T09:12:04.360Z,25.88
2022-11-22T09:14:32.800Z,22.70
2022-11-22T09:17:01.202Z,30.33
2022-11-22T09:19:29.960Z,21.00
2022-11-22T09:21:58.639Z,25.90
2022-11-22T09:24:26.991Z,26.47
2022-11-22T09:26:55.383Z,24.20
2022-11-22T09:29:23.722Z,24.20
2022-11-22T09:31:52.043Z,22.70
2022-11-22T09:34:20.533Z,22.10
2022-11-22T09:36:49.170Z,23.83
2022-11-22T09:39:17.503Z,21.35
2022-11-22T09:42:00.875Z,23.30
2022-11-22T09:44:38.496Z,19.02
2022-11-22T09:47:22.029Z,23.20
2022-11-22T09:49:53.520Z,20.05
2022-11-22T09:52:29.481Z,23.05
2022-11-22T09:55:03.169Z,24.13
2022-11-22T09:57:56.045Z,21.65
2022-11-22T10:00:28.486Z,20.25
2022-11-22T10:03:15.358Z,22.43
2022-11-22T10:06:06.352Z,20.75
2022-11-22T10:08:44.050Z,19.25
2022-11-22T10:11:23.810Z,26.58
2022-11-22T10:14:02.249Z,23.17
2022-11-22T10:16:42.367Z,21.47
2022-11-22T10:19:32.972Z,21.88
2022-11-22T10:22:02.190Z,22.55
2022-11-22T10:24:30.668Z,20.07
2022-11-22T10:27:01.093Z,21.50
2022-11-22T10:29:52.750Z,17.53
2022-11-22T10:32:41.139Z,19.43
2022-11-22T10:35:24.518Z,19.47
2022-11-22T10:38:14.338Z,18.07
2022-11-22T10:41:12.820Z,19.30
2022-11-22T10:44:21.521Z,20.57
2022-11-22T10:47:16.138Z,17.88
2022-11-22T10:50:13.851Z,17.47
2022-11-22T10:53:05.371Z,18.63
2022-11-22T10:55:59.948Z,18.60
2022-11-22T10:58:39.201Z,21.77
2022-11-22T11:01:21.723Z,18.50
2022-11-22T11:03:55.816Z,21.77
2022-11-22T11:07:04.748Z,16.90
2022-11-22T11:13:02.992Z,21.80
2022-11-22T11:15:48.061Z,18.87
2022-11-22T11:18:32.247Z,20.27
2022-11-22T11:21:00.612Z,23.50
2022-11-22T11:23:28.975Z,22.42
2022-11-22T11:26:14.743Z,21.02
2022-11-22T11:28:43.095Z,22.77
2022-11-22T11:31:14.460Z,18.63
2022-11-22T11:33:43.309Z,20.90
2022-11-22T11:36:24.733Z,21.43
2022-11-22T11:38:57.522Z,19.83
2022-11-22T11:41:38.825Z,18.70
2022-11-22T11:44:37.151Z,21.60
2022-11-22T11:47:06.410Z,21.47
2022-11-22T11:49:36.194Z,19.98
2022-11-22T11:52:14.692Z,19.95
2022-11-22T11:54:48.266Z,19.00
2022-11-22T11:57:36.180Z,20.30
2022-11-22T12:00:07.936Z,21.40
2022-11-22T12:02:40.341Z,19.95
2022-11-22T12:05:14.775Z,20.00
2022-11-22T12:07:46.144Z,18.87
2022-11-22T12:10:36.257Z,26.55
2022-11-22T12:13:33.120Z,21.00
2022-11-22T12:16:01.412Z,21.80
2022-11-22T12:18:48.325Z,20.07
2022-11-22T12:21:28.887Z,20.27
2022-11-22T12:27:10.142Z,20.55
2022-11-22T12:29:41.716Z,20.90
2022-11-22T12:32:30.530Z,28.73
2022-11-22T12:35:08.593Z,24.50
2022-11-22T12:38:25.980Z,20.40
2022-11-22T12:40:57.489Z,24.03
2022-11-22T12:43:38.442Z,22.75
2022-11-22T12:46:19.530Z,18.93
2022-11-22T12:48:54.258Z,18.20
2022-11-22T12:51:58.961Z,23.25
2022-11-22T12:54:53.368Z,24.88
2022-11-22T12:57:30.017Z,22.00
2022-11-22T13:00:25.602Z,20.35
2022-11-22T13:03:36.627Z,21.05
2022-11-22T13:06:08.613Z,19.50
2022-11-22T13:09:09.296Z,19.90
2022-11-22T13:11:46.047Z,19.83
2022-11-22T13:14:21.227Z,18.23
2022-11-22T13:16:51.894Z,21.60
2022-11-22T13:19:23.892Z,28.40
2022-11-22T13:22:19.314Z,20.77
2022-11-22T13:25:09.168Z,16.20
2022-11-22T13:27:49.279Z,18.67
2022-11-22T13:30:26.113Z,20.73
2022-11-22T13:32:58.918Z,20.67
2022-11-22T13:35:33.666Z,20.53
2022-11-22T13:38:06.767Z,20.10
2022-11-22T13:40:41.245Z,19.50
2022-11-22T13:43:21.484Z,19.85
2022-11-22T13:45:52.252Z,20.50
2022-11-22T13:48:41.932Z,18.03
2022-11-22T13:51:13.279Z,17.60
2022-11-22T13:53:46.856Z,18.27
2022-11-22T13:56:37.828Z,21.20
2022-11-22T13:59:15.734Z,17.40
2022-11-22T14:01:44.163Z,18.57
2022-11-22T14:04:20.395Z,17.80
2022-11-22T14:06:53.399Z,14.83
2022-11-22T14:09:54.768Z,16.27
2022-11-22T14:12:32.368Z,19.47
2022-11-22T14:15:24.132Z,17.87
2022-11-22T14:18:07.787Z,15.13
2022-11-22T14:21:07.182Z,14.00
2022-11-22T14:23:42.012Z,18.30
2022-11-22T14:26:34.773Z,16.20
2022-11-22T14:29:40.317Z,17.40
2022-11-22T14:32:24.261Z,16.70
2022-11-22T14:35:07.721Z,15.17
2022-11-22T14:37:45.141Z,15.10
2022-11-22T14:40:35.728Z,17.50
2022-11-22T14:43:13.279Z,18.60
2022-11-22T14:45:52.341Z,15.87
2022-11-22T14:48:23.396Z,16.93
2022-11-22T14:51:15.998Z,15.70
2022-11-22T14:53:56.828Z,18.90
2022-11-22T14:56:35.316Z,17.27
2022-11-22T14:59:35.396Z,16.70
2022-11-22T15:02:21.987Z,20.23
2022-11-22T15:09:13.164Z,16.23
2022-11-22T15:09:17.241Z,16.03
2022-11-22T15:11:47.306Z,14.60
2022-11-22T15:14:40.521Z,17.20
2022-11-22T15:57:39.204Z,16.93
2022-11-22T16:00:30.619Z,15.63
2022-11-22T16:03:07.359Z,18.13
2022-11-22T16:06:10.076Z,17.80
2022-11-22T16:08:31.082Z,15.73
2022-11-22T16:11:01.579Z,19.53
2022-11-22T16:13:34.582Z,18.73
2022-11-22T16:16:11.983Z,20.53
2022-11-22T16:18:44.815Z,19.03
2022-11-22T16:21:13.215Z,16.47
2022-11-22T16:23:43.381Z,19.93
2022-11-22T16:26:27.330Z,19.87
2022-11-22T16:28:57.239Z,18.87
2022-11-22T16:31:28.668Z,17.63
2022-11-22T16:33:58.419Z,22.07
2022-11-22T16:36:30.917Z,22.80
2022-11-22T16:38:59.466Z,23.60
2022-11-22T16:41:29.770Z,23.77
2022-11-22T16:44:05.460Z,27.03
2022-11-22T16:46:33.819Z,27.10
2022-11-22T16:49:02.230Z,23.77
2022-11-22T16:51:31.247Z,29.55
2022-11-22T16:54:06.564Z,28.42
2022-11-22T16:56:35.254Z,26.08
2022-11-22T16:59:06.900Z,24.60
2022-11-22T17:01:41.865Z,27.90
2022-11-22T17:04:22.510Z,25.52
2022-11-22T17:06:51.900Z,25.00
2022-11-22T17:09:20.280Z,31.08
2022-11-22T17:11:48.840Z,31.98
2022-11-22T17:14:18.949Z,30.75
2022-11-22T17:16:47.840Z,29.83
2022-11-22T17:19:51.556Z,30.13
2022-11-22T17:22:07.874Z,28.60
2022-11-22T17:24:36.542Z,37.65
2022-11-22T17:27:04.974Z,35.83
2022-11-22T17:32:21.801Z,31.50
2022-11-22T17:34:50.167Z,32.10
2022-11-22T17:37:18.575Z,36.75
2022-11-22T17:39:47.598Z,40.63
2022-11-22T17:42:18.118Z,33.17
2022-11-22T17:44:46.455Z,29.23
2022-11-22T17:47:14.798Z,33.03
2022-11-22T17:49:43.280Z,36.08
2022-11-22T17:52:11.649Z,35.75
2022-11-22T17:54:40.568Z,35.10
2022-11-22T17:57:08.968Z,34.75
2022-11-22T17:59:37.467Z,30.48
2022-11-22T18:02:05.848Z,32.85
2022-11-22T18:04:34.378Z,31.17
2022-11-22T18:07:02.881Z,32.97
2022-11-22T18:09:32.371Z,31.45
2022-11-22T18:12:01.017Z,30.90
2022-11-22T18:14:31.365Z,35.67
2022-11-22T18:17:01.166Z,31.23
2022-11-22T18:19:29.914Z,31.10
2022-11-22T18:21:58.528Z,33.15
2022-11-22T18:24:26.866Z,32.67
2022-11-22T18:26:55.251Z,35.40
2022-11-22T18:29:42.487Z,30.97
2022-11-22T18:32:11.116Z,33.87
2022-11-22T18:34:39.599Z,35.23
2022-11-22T18:37:07.931Z,33.17
2022-11-22T18:39:39.043Z,32.80
2022-11-22T18:42:16.502Z,39.23
2022-11-22T18:44:47.236Z,32.47
2022-11-22T18:47:15.605Z,36.53
2022-11-22T18:49:43.963Z,35.90
2022-11-22T18:52:15.013Z,37.13
2022-11-22T18:54:46.205Z,36.20
2022-11-22T18:57:14.606Z,36.67
2022-11-22T18:59:42.932Z,34.47
2022-11-22T19:02:11.305Z,45.47
2022-11-22T19:04:39.692Z,40.87
2022-11-22T19:07:08.074Z,44.60
2022-11-22T19:09:36.495Z,43.37
2022-11-22T19:12:05.064Z,36.17
2022-11-22T19:14:33.622Z,37.07
2022-11-22T19:17:02.072Z,44.13
2022-11-22T19:19:32.916Z,43.33
2022-11-22T19:22:02.772Z,47.00
2022-11-22T19:24:31.585Z,42.70
2022-11-22T19:27:00.090Z,38.40
2022-11-22T19:29:28.607Z,42.35
2022-11-22T19:31:57.220Z,37.73
2022-11-22T19:34:25.570Z,39.70
2022-11-22T19:36:53.888Z,41.77
2022-11-22T19:39:22.269Z,40.23
2022-11-22T19:41:50.732Z,41.80
2022-11-22T19:44:19.115Z,38.93
2022-11-22T19:46:47.455Z,37.10
2022-11-22T19:49:15.891Z,41.17
2022-11-22T19:51:44.220Z,42.30
2022-11-22T19:54:12.670Z,39.30
2022-11-22T19:56:41.044Z,42.00
2022-11-22T19:59:13.670Z,43.83
2022-11-22T20:01:42.264Z,44.07
2022-11-22T20:04:14.022Z,39.30
2022-11-22T20:06:45.924Z,43.10
2022-11-22T20:09:17.341Z,47.70
2022-11-22T20:11:46.268Z,37.30
2022-11-22T20:14:14.727Z,45.37
2022-11-22T20:16:43.673Z,37.67
2022-11-22T20:19:13.079Z,37.67
2022-11-22T20:21:42.234Z,42.63
2022-11-22T20:24:10.939Z,59.47
2022-11-22T20:26:39.391Z,47.87
2022-11-22T20:29:11.741Z,49.07
2022-11-22T20:31:41.196Z,47.33
2022-11-22T20:34:11.227Z,42.67
2022-11-22T20:36:39.605Z,47.90
2022-11-22T20:39:10.712Z,54.27
2022-11-22T20:41:40.881Z,50.13
2022-11-22T20:44:13.844Z,56.00
2022-11-22T20:46:42.884Z,90.87
2022-11-22T20:49:11.315Z,73.83
2022-11-22T20:51:43.846Z,88.80
2022-11-22T20:54:14.091Z,61.47
2022-11-22T20:56:42.412Z,108.83
2022-11-22T20:59:10.905Z,74.77
2022-11-22T21:01:39.297Z,79.23
2022-11-22T21:04:08.021Z,83.73
2022-11-22T21:06:36.631Z,54.97
2022-11-22T21:09:05.190Z,40.90
2022-11-22T21:11:33.535Z,20.07
2022-11-22T21:14:02.189Z,13.27
2022-11-22T21:16:31.242Z,13.93
2022-11-22T21:19:07.360Z,19.70
2022-11-22T21:21:39.254Z,13.13
2022-11-22T21:24:08.561Z,9.50
2022-11-22T21:26:36.884Z,8.73
2022-11-22T21:29:12.945Z,9.47
2022-11-22T21:31:44.564Z,8.90
2022-11-22T21:34:13.457Z,9.23
2022-11-22T21:36:41.783Z,8.77
2022-11-22T21:39:10.608Z,7.90
2022-11-22T21:41:40.626Z,8.33
2022-11-22T21:44:10.638Z,9.03
2022-11-22T21:46:39.225Z,7.47
2022-11-22T21:49:08.188Z,7.60
2022-11-22T21:51:36.542Z,11.03
2022-11-22T21:54:05.129Z,9.17
2022-11-22T21:56:33.707Z,8.30
2022-11-22T21:59:02.360Z,10.53
2022-11-22T22:01:31.090Z,11.90
2022-11-22T22:03:59.691Z,6.40
2022-11-22T22:06:28.112Z,7.37
2022-11-22T22:08:56.632Z,12.70
2022-11-22T22:11:25.314Z,13.33
2022-11-22T22:13:59.668Z,8.03
2022-11-22T22:16:28.168Z,13.17
2022-11-22T22:18:56.564Z,15.90
2022-11-22T22:21:24.945Z,17.80
2022-11-22T22:23:54.465Z,14.37
2022-11-22T22:26:23.134Z,15.00
2022-11-22T22:28:53.127Z,20.67
2022-11-22T22:31:23.762Z,16.50
2022-11-22T22:33:57.865Z,14.60
2022-11-22T22:36:28.055Z,17.67
2022-11-22T22:38:56.548Z,14.40
2022-11-22T22:41:24.965Z,15.30
2022-11-22T22:43:53.440Z,23.17
2022-11-22T22:46:23.855Z,19.63
2022-11-22T22:48:53.090Z,18.57
2022-11-22T22:51:27.523Z,12.70
2022-11-22T22:53:59.486Z,12.70
2022-11-22T22:56:30.347Z,11.70
2022-11-22T22:59:01.462Z,11.00
2022-11-22T23:01:32.259Z,8.27
2022-11-22T23:04:02.098Z,10.47
2022-11-22T23:06:36.972Z,8.30
2022-11-22T23:09:08.591Z,6.90
2022-11-22T23:11:56.054Z,7.70
2022-11-22T23:14:26.952Z,10.57
2022-11-22T23:16:57.917Z,6.97
2022-11-22T23:19:28.232Z,5.50
2022-11-22T23:21:57.042Z,9.20
2022-11-22T23:24:25.396Z,7.23
2022-11-22T23:26:53.854Z,8.17
2022-11-22T23:29:22.235Z,4.50
2022-11-22T23:31:50.573Z,6.17
2022-11-22T23:34:19.075Z,6.23
2022-11-22T23:36:47.439Z,6.10
2022-11-22T23:39:15.819Z,6.00
2022-11-22T23:41:45.774Z,6.17
2022-11-22T23:44:14.166Z,6.40
2022-11-22T23:46:42.545Z,6.80
2022-11-22T23:49:12.614Z,6.87
2022-11-22T23:51:41.005Z,8.20
2022-11-22T23:54:09.766Z,9.10
2022-11-22T23:56:38.263Z,6.70
2022-11-22T23:59:06.885Z,7.67
